Time;durP1;ratioP1;P1;durP2;ratioP2;P2;SDS_P1;SDS_P2;PMS_P1;PMS_P2;Temp;Humidity;BMP_temperature;BMP_pressure;BME280_temperature;BME280_humidity;BME280_pressure;Samples;Min_cycle;Max_cycle;Signal;HPM_P1;HPM_P2
2022/12/09 00:02:14;;;;;;;20.02;9.38;;;;;;;9.22;100.00;92946.53;5110359;28;20483;-71
2022/12/09 00:04:41;;;;;;;18.20;7.30;;;;;;;9.22;100.00;92956.78;5110849;28;20047;-71
2022/12/09 00:07:08;;;;;;;20.27;8.13;;;;;;;9.24;100.00;92957.34;5110491;28;20047;-71
2022/12/09 00:09:35;;;;;;;18.73;8.20;;;;;;;9.28;100.00;92962.84;5110145;28;20044;-71
2022/12/09 00:12:01;;;;;;;20.15;8.15;;;;;;;9.31;100.00;92963.22;5110111;28;20096;-72
2022/12/09 00:14:29;;;;;;;22.63;7.55;;;;;;;9.36;100.00;92965.94;5107742;28;20108;-71
2022/12/09 00:16:56;;;;;;;18.40;8.60;;;;;;;9.34;100.00;92960.25;5107529;28;20069;-71
2022/12/09 00:19:23;;;;;;;18.88;7.80;;;;;;;9.35;100.00;92969.50;5108135;28;20568;-71
2022/12/09 00:21:50;;;;;;;21.45;8.10;;;;;;;9.38;100.00;92973.44;5109020;28;20092;-72
2022/12/09 00:24:19;;;;;;;22.50;9.13;;;;;;;9.40;100.00;92971.44;5109876;28;20407;-71
2022/12/09 00:26:46;;;;;;;20.08;8.07;;;;;;;9.34;100.00;92962.00;5109938;28;20044;-71
2022/12/09 00:29:13;;;;;;;22.83;8.18;;;;;;;9.44;100.00;92970.03;5109985;28;20426;-71
2022/12/09 00:31:59;;;;;;;17.45;7.60;;;;;;;9.47;100.00;92984.22;5109937;28;20055;-72
2022/12/09 00:34:26;;;;;;;17.58;7.20;;;;;;;9.51;100.00;92995.63;5109229;28;20414;-71
2022/12/09 00:36:53;;;;;;;16.65;6.93;;;;;;;9.53;100.00;92998.00;5109618;28;20097;-72
2022/12/09 00:39:20;;;;;;;17.92;7.95;;;;;;;9.50;100.00;92991.50;5109370;28;20144;-71
2022/12/09 00:41:47;;;;;;;16.83;7.25;;;;;;;9.56;100.00;93000.94;5109830;28;20096;-71
2022/12/09 00:44:14;;;;;;;16.88;7.35;;;;;;;9.58;100.00;93004.06;5109224;28;20040;-72
2022/12/09 00:46:41;;;;;;;19.50;7.38;;;;;;;9.58;100.00;92998.16;5109597;28;20088;-72
2022/12/09 00:49:10;;;;;;;21.88;7.65;;;;;;;9.57;100.00;92999.94;5109870;28;20051;-72
2022/12/09 00:51:37;;;;;;;19.33;7.18;;;;;;;9.58;100.00;92998.16;5109940;28;20124;-72
2022/12/09 00:54:03;;;;;;;15.63;7.90;;;;;;;9.57;100.00;92986.31;5109709;28;20093;-72
2022/12/09 00:56:31;;;;;;;19.85;7.18;;;;;;;9.49;100.00;92987.34;5110033;28;20052;-72
2022/12/09 00:58:58;;;;;;;21.92;7.47;;;;;;;9.55;100.00;92990.88;5109794;28;20039;-72
2022/12/09 01:01:25;;;;;;;19.08;7.38;;;;;;;9.52;100.00;92993.84;5109785;28;20048;-72
2022/12/09 01:03:52;;;;;;;17.55;7.47;;;;;;;9.53;100.00;92980.03;5109354;28;20454;-72
2022/12/09 01:06:22;;;;;;;24.52;7.82;;;;;;;9.47;100.00;92973.97;5110041;28;20404;-72
2022/12/09 01:08:49;;;;;;;17.45;7.50;;;;;;;9.46;100.00;92957.81;5113667;28;20108;-72
2022/12/09 01:11:18;;;;;;;17.13;7.95;;;;;;;9.49;100.00;92961.69;5113980;28;20100;-72
2022/12/09 01:13:45;;;;;;;21.67;7.53;;;;;;;9.43;100.00;92968.47;5113771;28;20048;-72
2022/12/09 01:16:16;;;;;;;21.85;7.28;;;;;;;9.47;100.00;92974.75;5113921;28;20120;-72
2022/12/09 01:18:43;;;;;;;16.92;8.05;;;;;;;9.43;100.00;92975.34;5113684;28;20047;-72
2022/12/09 01:21:10;;;;;;;20.77;7.55;;;;;;;9.47;100.00;92981.66;5113731;28;20136;-72
2022/12/09 01:23:38;;;;;;;23.75;7.70;;;;;;;9.43;100.00;92981.28;5113636;28;20112;-72
2022/12/09 01:26:05;;;;;;;23.88;7.53;;;;;;;9.44;100.00;92982.84;5113750;28;20047;-72
2022/12/09 01:28:33;;;;;;;16.92;8.43;;;;;;;9.45;100.00;92984.41;5113370;28;20570;-72
2022/12/09 01:31:05;;;;;;;20.42;7.10;;;;;;;9.38;100.00;92970.88;5113907;28;20068;-72
2022/12/09 01:33:32;;;;;;;17.58;7.03;;;;;;;9.42;100.00;92977.16;5113286;28;20051;-72
2022/12/09 01:35:59;;;;;;;17.30;6.88;;;;;;;9.42;100.00;92978.91;5113492;28;20051;-72
2022/12/09 01:38:26;;;;;;;15.45;6.85;;;;;;;9.47;100.00;92984.22;5113074;28;20048;-72
2022/12/09 01:40:54;;;;;;;14.57;6.75;;;;;;;9.47;100.00;92982.44;5113523;28;20055;-72
2022/12/09 01:43:21;;;;;;;17.67;6.63;;;;;;;9.44;100.00;92979.50;5113324;28;20075;-72
2022/12/09 01:45:48;;;;;;;15.60;7.03;;;;;;;9.45;100.00;92979.28;5113499;28;20051;-72
2022/12/09 01:48:16;;;;;;;14.98;6.55;;;;;;;9.41;100.00;92959.41;5113245;28;20039;-72
2022/12/09 01:50:48;;;;;;;20.20;6.93;;;;;;;9.44;100.00;92953.88;5113399;28;20048;-72
2022/12/09 01:53:17;;;;;;;19.63;7.07;;;;;;;9.39;100.00;92969.09;5113206;28;20483;-72
2022/12/09 01:55:44;;;;;;;24.20;7.72;;;;;;;9.32;100.00;92969.13;5112993;28;20047;-72
2022/12/09 01:58:14;;;;;;;20.90;6.72;;;;;;;9.35;100.00;92961.00;5113272;28;20048;-72
2022/12/09 02:00:42;;;;;;;19.20;7.30;;;;;;;9.37;100.00;92953.91;5112866;28;20047;-72
2022/12/09 02:03:08;;;;;;;67.15;21.45;;;;;;;9.38;100.00;92952.91;5112952;28;20071;-72
2022/12/09 02:05:36;;;;;;;23.60;6.53;;;;;;;9.37;100.00;92953.91;5113118;28;20043;-72
2022/12/09 02:08:06;;;;;;;27.30;10.48;;;;;;;9.37;100.00;92951.34;5113218;28;20048;-72
2022/12/09 02:10:36;;;;;;;18.55;8.43;;;;;;;9.40;100.00;92960.41;5112702;28;20055;-72
2022/12/09 02:13:14;;;;;;;24.00;7.13;;;;;;;9.34;100.00;92954.31;5112849;28;20097;-72
2022/12/09 02:15:47;;;;;;;21.33;8.40;;;;;;;9.23;100.00;92935.28;5112644;28;20555;-72
2022/12/09 02:18:21;;;;;;;29.42;8.18;;;;;;;9.21;100.00;92937.25;5112733;28;20052;-72
2022/12/09 02:20:54;;;;;;;24.17;8.73;;;;;;;9.35;100.00;92949.00;5112415;28;20113;-72
2022/12/09 02:23:25;;;;;;;15.75;7.18;;;;;;;9.34;100.00;92939.75;5112761;28;20044;-72
2022/12/09 02:25:56;;;;;;;18.80;7.68;;;;;;;9.32;100.00;92936.59;5112692;28;20112;-72
2022/12/09 02:29:02;;;;;;;16.13;6.85;;;;;;;9.34;100.00;92947.44;5112671;28;20093;-72
2022/12/09 02:31:47;;;;;;;19.17;6.97;;;;;;;9.31;100.00;92952.97;5112728;28;20052;-72
2022/12/09 02:34:18;;;;;;;21.70;9.50;;;;;;;9.31;100.00;92952.97;5112383;28;20124;-72
2022/12/09 02:36:54;;;;;;;19.33;7.13;;;;;;;9.33;100.00;92951.00;5112513;27;20048;-73
2022/12/09 02:39:28;;;;;;;19.42;6.85;;;;;;;9.34;100.00;92962.00;5112317;28;20217;-72
2022/12/09 02:41:58;;;;;;;18.08;6.93;;;;;;;9.39;100.00;92969.09;5112156;28;20116;-73
2022/12/09 02:44:26;;;;;;;24.02;8.10;;;;;;;9.38;100.00;92963.19;5112003;28;20560;-72
2022/12/09 02:46:55;;;;;;;20.52;7.25;;;;;;;9.34;100.00;92962.81;5111990;28;20052;-72
2022/12/09 02:49:25;;;;;;;21.40;8.13;;;;;;;9.36;100.00;92968.50;5112135;28;20093;-72
2022/12/09 02:51:54;;;;;;;24.02;10.60;;;;;;;9.40;100.00;92970.66;5111489;28;20044;-72
2022/12/09 02:54:23;;;;;;;26.05;9.75;;;;;;;9.45;100.00;92974.16;5112003;28;20506;-72
2022/12/09 02:56:53;;;;;;;20.10;7.68;;;;;;;9.47;100.00;92979.09;5109153;28;20055;-72
2022/12/09 02:59:20;;;;;;;27.73;10.55;;;;;;;9.51;100.00;92976.88;5109669;28;20084;-72
2022/12/09 03:01:57;;;;;;;17.23;7.60;;;;;;;9.52;100.00;92974.13;5112194;28;20499;-72
2022/12/09 03:04:28;;;;;;;20.27;7.13;;;;;;;9.49;100.00;92974.53;5111535;28;20096;-72
2022/12/09 03:07:00;;;;;;;22.00;9.40;;;;;;;9.55;100.00;92978.03;5111560;28;20105;-72
2022/12/09 03:09:33;;;;;;;17.70;8.65;;;;;;;9.46;100.00;92969.81;5111534;28;20073;-72
2022/12/09 03:12:06;;;;;;;22.75;6.97;;;;;;;9.50;100.00;92973.56;5111544;28;20564;-72
2022/12/09 03:14:38;;;;;;;16.00;7.85;;;;;;;9.53;100.00;92980.03;5111571;28;20450;-72
2022/12/09 03:17:12;;;;;;;23.33;6.57;;;;;;;9.47;100.00;92982.44;5111566;28;20093;-72
2022/12/09 03:19:45;;;;;;;19.90;7.88;;;;;;;9.44;100.00;92976.94;5110892;27;20071;-72
2022/12/09 03:22:15;;;;;;;24.48;8.52;;;;;;;9.35;100.00;92969.50;5111461;28;20407;-72
2022/12/09 03:24:50;;;;;;;20.08;7.13;;;;;;;9.39;100.00;92976.78;5111389;28;21124;-72
2022/12/09 03:27:21;;;;;;;16.95;6.50;;;;;;;9.39;100.00;92967.31;5111550;28;20048;-72
2022/12/09 03:29:50;;;;;;;23.38;7.03;;;;;;;9.33;100.00;92963.00;5111117;28;20548;-72
2022/12/09 03:32:21;;;;;;;19.33;7.70;;;;;;;9.32;100.00;92967.38;5110349;28;20048;-72
2022/12/09 03:34:53;;;;;;;26.80;12.52;;;;;;;9.25;100.00;92958.91;5111318;28;20108;-71
2022/12/09 03:37:21;;;;;;;22.95;7.50;;;;;;;9.27;100.00;92966.41;5111150;28;20572;-72
2022/12/09 03:39:50;;;;;;;24.20;8.90;;;;;;;9.24;100.00;92967.59;5110785;28;20465;-72
2022/12/09 03:42:21;;;;;;;21.33;7.85;;;;;;;9.25;100.00;92971.72;5110750;28;20491;-71
2022/12/09 03:44:51;;;;;;;21.13;9.10;;;;;;;9.21;100.00;92963.69;5111068;28;20044;-72
2022/12/09 03:47:18;;;;;;;20.70;8.25;;;;;;;9.17;100.00;92967.63;5111175;28;20429;-71
2022/12/09 03:49:45;;;;;;;21.35;7.53;;;;;;;9.16;100.00;92978.13;5111047;28;20055;-72
2022/12/09 03:52:19;;;;;;;20.15;7.32;;;;;;;9.12;100.00;92972.59;5111133;28;20430;-72
2022/12/09 03:54:49;;;;;;;22.48;8.35;;;;;;;9.15;100.00;92979.09;5110532;28;20052;-72
2022/12/09 03:57:19;;;;;;;18.85;7.60;;;;;;;9.14;100.00;92974.97;5110604;28;20121;-72
2022/12/09 03:59:52;;;;;;;20.77;6.88;;;;;;;9.14;100.00;92982.63;5110805;28;20503;-72
2022/12/09 04:02:19;;;;;;;19.35;7.75;;;;;;;9.13;100.00;92983.63;5111007;28;20056;-72
2022/12/09 04:04:46;;;;;;;16.80;6.38;;;;;;;9.09;100.00;92970.47;5110534;28;20105;-72
2022/12/09 04:07:14;;;;;;;13.32;6.20;;;;;;;9.11;100.00;92980.50;5110414;28;20055;-72
2022/12/09 04:09:40;;;;;;;17.67;6.18;;;;;;;9.09;100.00;92973.03;5110877;28;20048;-72
2022/12/09 04:12:08;;;;;;;15.35;7.10;;;;;;;9.09;100.00;92967.91;5110423;27;20039;-72
2022/12/09 04:14:34;;;;;;;20.45;7.65;;;;;;;9.09;100.00;92962.78;5110267;28;20128;-72
2022/12/09 04:17:01;;;;;;;17.48;6.72;;;;;;;9.09;100.00;92968.66;5110560;28;20051;-72
2022/12/09 04:19:28;;;;;;;23.30;7.30;;;;;;;9.03;100.00;92961.03;5110629;28;20047;-72
2022/12/09 04:21:55;;;;;;;26.17;6.88;;;;;;;9.08;100.00;92971.47;5110276;28;20055;-72
2022/12/09 04:24:23;;;;;;;19.70;6.55;;;;;;;9.09;100.00;92970.47;5110449;28;20039;-72
2022/12/09 04:26:49;;;;;;;17.65;6.03;;;;;;;9.12;100.00;92969.25;5111079;28;20047;-72
2022/12/09 04:29:16;;;;;;;18.77;6.85;;;;;;;9.12;100.00;92969.25;5110188;28;20043;-72
2022/12/09 04:31:43;;;;;;;26.83;8.88;;;;;;;9.08;100.00;92961.22;5110183;28;20589;-72
2022/12/09 04:34:09;;;;;;;22.92;8.82;;;;;;;9.14;100.00;92967.25;5110329;28;20043;-72
2022/12/09 04:36:37;;;;;;;24.75;7.50;;;;;;;9.10;100.00;92969.47;5110286;28;20051;-72
2022/12/09 04:39:03;;;;;;;20.33;7.38;;;;;;;9.11;100.00;92968.47;5109762;28;20059;-72
2022/12/09 04:41:32;;;;;;;25.13;7.97;;;;;;;9.14;100.00;92969.84;5109235;28;20051;-72
2022/12/09 04:43:58;;;;;;;21.65;6.85;;;;;;;9.15;100.00;92964.50;5109142;28;20051;-72
2022/12/09 04:46:25;;;;;;;27.63;10.18;;;;;;;9.15;100.00;92971.41;5110303;28;20100;-72
2022/12/09 04:48:52;;;;;;;16.58;7.95;;;;;;;9.16;100.00;92973.00;5110176;28;20047;-72
2022/12/09 04:51:19;;;;;;;21.08;8.60;;;;;;;9.17;100.00;92972.00;5110085;28;20052;-72
2022/12/09 04:53:46;;;;;;;19.88;8.43;;;;;;;9.16;100.00;92970.44;5109936;28;20077;-72
2022/12/09 04:56:17;;;;;;;17.92;8.43;;;;;;;9.11;100.00;92975.38;5109796;28;20544;-72
2022/12/09 04:58:46;;;;;;;25.83;8.50;;;;;;;9.04;100.00;92977.97;5110004;28;20047;-72
2022/12/09 05:01:15;;;;;;;19.25;7.47;;;;;;;9.02;100.00;92973.03;5109898;28;20464;-72
2022/12/09 05:03:42;;;;;;;23.35;7.50;;;;;;;8.97;100.00;92974.66;5109869;28;20047;-72
2022/12/09 05:06:12;;;;;;;19.77;8.48;;;;;;;8.91;100.00;92963.44;5110019;28;20059;-72
2022/12/09 05:08:40;;;;;;;21.17;9.00;;;;;;;8.88;100.00;92966.44;5109722;28;20050;-72
2022/12/09 05:11:07;;;;;;;21.60;9.57;;;;;;;8.84;100.00;92963.47;5109762;28;20105;-72
2022/12/09 05:13:34;;;;;;;31.27;10.48;;;;;;;8.80;100.00;92970.03;5109352;28;20052;-72
2022/12/09 05:16:05;;;;;;;27.42;10.32;;;;;;;8.74;100.00;92975.97;5109684;28;20093;-73
2022/12/09 05:18:32;;;;;;;22.50;9.80;;;;;;;8.53;100.00;92947.09;5109823;28;20052;-73
2022/12/09 05:20:59;;;;;;;25.90;9.73;;;;;;;8.77;100.00;92978.09;5110096;28;20793;-71
2022/12/09 05:23:25;;;;;;;23.33;8.50;;;;;;;8.75;100.00;92972.41;5109587;28;20048;-72
2022/12/09 05:25:54;;;;;;;27.70;8.98;;;;;;;8.75;100.00;92983.41;5109748;28;20053;-71
2022/12/09 05:28:21;;;;;;;25.05;9.35;;;;;;;8.75;100.00;92980.84;5109446;28;20066;-72
2022/12/09 05:30:47;;;;;;;20.00;8.80;;;;;;;8.71;100.00;92989.16;5109756;28;20044;-72
2022/12/09 05:33:15;;;;;;;24.10;8.93;;;;;;;8.67;100.00;92988.78;5109407;28;20100;-71
2022/12/09 05:35:44;;;;;;;20.23;6.57;;;;;;;8.69;100.00;92992.72;5109711;28;20503;-71
2022/12/09 05:38:10;;;;;;;23.27;6.85;;;;;;;8.67;100.00;92997.22;5109577;28;20142;-71
2022/12/09 05:40:37;;;;;;;20.88;6.18;;;;;;;8.63;100.00;92992.72;5109839;28;20092;-71
2022/12/09 05:43:04;;;;;;;18.52;6.07;;;;;;;8.59;100.00;92992.34;5109670;28;20044;-71
2022/12/09 05:45:31;;;;;;;14.18;5.70;;;;;;;8.57;100.00;92999.47;5109354;28;20052;-72
2022/12/09 05:47:57;;;;;;;18.35;6.68;;;;;;;8.61;100.00;92994.72;5109656;28;20433;-71
2022/12/09 05:50:25;;;;;;;20.67;6.25;;;;;;;8.63;100.00;92992.72;5109652;28;20055;-71
2022/12/09 05:52:52;;;;;;;16.77;5.05;;;;;;;8.62;100.00;92991.16;5109724;28;20120;-71
2022/12/09 05:55:19;;;;;;;19.98;6.90;;;;;;;8.59;100.00;92994.91;5112180;28;20039;-71
2022/12/09 05:57:45;;;;;;;19.67;6.47;;;;;;;8.59;100.00;92991.56;5112989;28;20491;-71
2022/12/09 06:00:13;;;;;;;18.88;7.20;;;;;;;8.59;100.00;92991.56;5112363;28;20128;-71
2022/12/09 06:02:40;;;;;;;23.38;7.22;;;;;;;8.61;100.00;92992.94;5112716;28;20051;-71
2022/12/09 06:05:08;;;;;;;23.70;8.45;;;;;;;8.52;100.00;92983.91;5112774;28;20043;-71
2022/12/09 06:07:36;;;;;;;17.17;5.78;;;;;;;8.61;100.00;92995.47;5113020;28;20101;-71
2022/12/09 06:10:04;;;;;;;20.63;6.55;;;;;;;8.66;100.00;93000.00;5112967;28;20051;-71
2022/12/09 06:12:31;;;;;;;18.45;6.05;;;;;;;8.64;100.00;93002.78;5113049;28;20092;-71
2022/12/09 06:14:58;;;;;;;16.67;6.28;;;;;;;8.67;100.00;93012.59;5112852;28;20445;-71
2022/12/09 06:17:24;;;;;;;14.93;5.30;;;;;;;8.72;100.00;93009.44;5112520;28;20092;-71
2022/12/09 06:19:51;;;;;;;17.20;5.82;;;;;;;8.80;100.00;93006.66;5112962;28;20457;-71
2022/12/09 06:22:18;;;;;;;11.77;5.30;;;;;;;8.78;100.00;93003.50;5112431;28;20055;-71
2022/12/09 06:24:46;;;;;;;21.50;6.28;;;;;;;8.77;100.00;93007.06;5112535;28;20579;-71
2022/12/09 06:27:12;;;;;;;17.42;6.25;;;;;;;8.78;100.00;93006.06;5112254;28;20402;-71
2022/12/09 06:29:39;;;;;;;18.48;6.20;;;;;;;8.81;100.00;92999.75;5112745;28;20047;-72
2022/12/09 06:32:06;;;;;;;22.42;6.75;;;;;;;8.80;100.00;93008.44;5112619;28;20104;-72
2022/12/09 06:34:32;;;;;;;16.92;5.55;;;;;;;8.81;100.00;93003.09;5112338;28;20043;-72
2022/12/09 06:36:59;;;;;;;18.40;5.13;;;;;;;8.89;100.00;93006.44;5112586;28;20047;-71
2022/12/09 06:39:26;;;;;;;22.58;6.10;;;;;;;8.83;100.00;92997.78;5112033;28;20048;-71
2022/12/09 06:41:54;;;;;;;23.58;5.95;;;;;;;8.82;100.00;93001.31;5112434;28;20544;-72
2022/12/09 06:44:21;;;;;;;16.73;6.03;;;;;;;8.86;100.00;93004.25;5112182;28;20059;-71
2022/12/09 06:46:47;;;;;;;17.02;6.60;;;;;;;8.89;100.00;93009.00;5112122;28;20055;-71
2022/12/09 06:49:14;;;;;;;20.70;6.45;;;;;;;8.91;100.00;93010.34;5112127;28;20068;-72
2022/12/09 06:51:41;;;;;;;17.40;5.70;;;;;;;8.99;100.00;93011.09;5112132;28;20048;-72
2022/12/09 06:54:08;;;;;;;19.13;5.63;;;;;;;8.96;100.00;93014.84;5111889;28;20051;-71
2022/12/09 06:56:35;;;;;;;18.88;5.40;;;;;;;8.99;100.00;93029.84;5111587;28;20499;-71
2022/12/09 06:59:07;;;;;;;19.02;5.85;;;;;;;8.98;100.00;93024.91;5112065;28;20106;-72
2022/12/09 07:01:33;;;;;;;22.05;7.25;;;;;;;9.00;100.00;93020.34;5098679;28;20048;-71
2022/12/09 07:04:00;;;;;;;20.35;8.00;;;;;;;8.98;100.00;93018.00;5108605;28;20059;-72
2022/12/09 07:06:30;;;;;;;23.77;7.28;;;;;;;8.98;100.00;93028.25;5111441;28;20495;-71
2022/12/09 07:08:59;;;;;;;16.15;6.80;;;;;;;9.02;100.00;93024.28;5111560;28;20101;-72
2022/12/09 07:11:26;;;;;;;17.50;5.80;;;;;;;9.04;100.00;93022.31;5111839;28;20100;-72
2022/12/09 07:13:52;;;;;;;18.33;6.05;;;;;;;9.07;100.00;93026.22;5111200;28;20512;-72
2022/12/09 07:16:20;;;;;;;18.30;6.75;;;;;;;9.08;100.00;93032.94;5105629;28;20117;-72
2022/12/09 07:18:47;;;;;;;24.23;6.70;;;;;;;9.11;100.00;93032.53;5105643;28;20418;-72
2022/12/09 07:21:16;;;;;;;18.10;7.03;;;;;;;9.15;100.00;93045.72;5111363;28;20105;-72
2022/12/09 07:23:44;;;;;;;23.20;7.05;;;;;;;9.14;100.00;93041.59;5111160;28;20048;-71
2022/12/09 07:26:11;;;;;;;21.33;6.20;;;;;;;9.11;100.00;93037.66;5110869;28;20059;-72
2022/12/09 07:28:41;;;;;;;18.23;5.88;;;;;;;9.15;100.00;93030.34;5111210;28;20560;-72
2022/12/09 07:31:17;;;;;;;14.95;7.30;;;;;;;9.13;100.00;93032.31;5111269;28;20078;-72
2022/12/09 07:33:45;;;;;;;14.00;6.22;;;;;;;9.01;100.00;93019.38;5111042;28;20484;-71
2022/12/09 07:36:12;;;;;;;20.38;7.35;;;;;;;9.05;100.00;93033.34;5111299;28;20125;-71
2022/12/09 07:38:39;;;;;;;19.33;7.38;;;;;;;9.06;100.00;93032.34;5110833;28;20055;-71
2022/12/09 07:41:06;;;;;;;19.55;6.70;;;;;;;9.06;100.00;93030.59;5111191;28;20051;-71
2022/12/09 07:43:33;;;;;;;15.90;6.35;;;;;;;9.00;100.00;93010.09;5110667;28;20563;-72
2022/12/09 07:46:04;;;;;;;21.45;7.00;;;;;;;8.98;100.00;93012.88;5110613;28;20506;-72
2022/12/09 07:48:31;;;;;;;20.83;6.07;;;;;;;9.04;100.00;93011.28;5111075;28;20123;-71
2022/12/09 07:51:01;;;;;;;18.70;6.32;;;;;;;9.07;100.00;92998.84;5110962;28;20082;-72
2022/12/09 07:53:28;;;;;;;19.42;6.28;;;;;;;9.07;100.00;92992.91;5110892;28;20410;-72
2022/12/09 07:55:55;;;;;;;16.60;5.60;;;;;;;9.25;100.00;93017.09;5110396;28;20568;-72
2022/12/09 07:58:22;;;;;;;19.17;6.07;;;;;;;9.25;100.00;93015.31;5110475;28;20560;-71
2022/12/09 08:00:49;;;;;;;22.92;6.78;;;;;;;9.33;100.00;93019.41;5110851;28;20440;-71
2022/12/09 08:03:15;;;;;;;18.50;6.45;;;;;;;9.36;100.00;93024.13;5110557;28;20052;-71
2022/12/09 08:05:47;;;;;;;19.38;6.30;;;;;;;9.42;100.00;93025.88;5110583;28;20075;-71
2022/12/09 08:08:15;;;;;;;25.45;7.57;;;;;;;9.39;100.00;93026.25;5110303;28;20566;-71
2022/12/09 08:10:42;;;;;;;19.80;7.65;;;;;;;9.46;100.00;93026.22;5110571;28;20516;-71
2022/12/09 08:13:09;;;;;;;18.80;7.43;;;;;;;9.54;100.00;93038.78;5110668;28;20093;-71
2022/12/09 08:15:36;;;;;;;23.45;7.50;;;;;;;9.60;100.00;93043.13;5110490;28;20128;-72
2022/12/09 08:18:03;;;;;;;23.75;6.95;;;;;;;9.78;100.00;93048.50;5109766;28;20183;-72
2022/12/09 08:20:30;;;;;;;18.85;7.75;;;;;;;9.85;100.00;93044.09;5110291;28;20564;-72
2022/12/09 08:22:57;;;;;;;23.88;7.68;;;;;;;9.94;100.00;93052.31;5110362;28;20066;-72
2022/12/09 08:25:25;;;;;;;20.23;6.05;;;;;;;9.98;100.00;93033.75;5110428;28;20449;-72
2022/12/09 08:27:51;;;;;;;22.25;6.57;;;;;;;10.00;100.00;93031.75;5110255;28;20124;-72
2022/12/09 08:30:18;;;;;;;21.48;6.25;;;;;;;10.06;100.00;93027.56;5110571;28;20544;-72
2022/12/09 08:32:45;;;;;;;18.15;6.30;;;;;;;10.06;100.00;93025.00;5110351;28;20483;-71
2022/12/09 08:35:13;;;;;;;20.17;5.95;;;;;;;10.12;100.00;93026.72;5110396;28;20100;-72
2022/12/09 08:37:40;;;;;;;16.23;5.85;;;;;;;10.11;100.00;93014.09;5110308;28;20063;-72
2022/12/09 08:40:08;;;;;;;23.63;5.85;;;;;;;10.01;100.00;93006.91;5109877;28;20587;-72
2022/12/09 08:42:36;;;;;;;28.85;6.75;;;;;;;10.14;100.00;93022.16;5109755;28;20048;-71
2022/12/09 08:45:04;;;;;;;21.05;6.07;;;;;;;10.09;100.00;93000.72;5109909;28;20499;-71
2022/12/09 08:47:31;;;;;;;21.58;6.30;;;;;;;10.28;100.00;93014.34;5110261;28;20108;-72
2022/12/09 08:49:57;;;;;;;16.25;5.90;;;;;;;10.36;100.00;92998.66;5109748;28;20096;-72
2022/12/09 08:52:24;;;;;;;16.35;5.70;;;;;;;10.40;100.00;92994.69;5110302;28;20052;-71
2022/12/09 08:54:51;;;;;;;15.77;5.43;;;;;;;10.44;100.00;92995.06;5109961;28;20051;-72
2022/12/09 08:57:22;;;;;;;25.13;6.68;;;;;;;10.43;100.00;92981.44;5109836;28;20108;-71
2022/12/09 08:59:50;;;;;;;24.92;7.03;;;;;;;10.38;100.00;92959.94;5110046;28;20051;-71
2022/12/09 09:02:17;;;;;;;21.45;7.75;;;;;;;10.63;100.00;92985.56;5109997;28;20052;-71
2022/12/09 09:04:43;;;;;;;20.20;5.85;;;;;;;10.74;100.00;92973.78;5110057;28;20087;-71
2022/12/09 09:07:10;;;;;;;16.60;5.95;;;;;;;10.78;100.00;92972.34;5109771;28;20047;-71
2022/12/09 09:09:37;;;;;;;23.90;7.90;;;;;;;10.85;100.00;92971.47;5109962;28;20061;-71
2022/12/09 09:12:03;;;;;;;22.20;7.05;;;;;;;10.88;100.00;92968.50;5109632;28;20040;-71
2022/12/09 09:14:30;;;;;;;19.75;7.07;;;;;;;10.88;100.00;92968.50;5109680;28;20507;-71
2022/12/09 09:16:59;;;;;;;27.33;7.53;;;;;;;10.89;100.00;92965.72;5109738;28;20051;-71
2022/12/09 09:19:25;;;;;;;25.73;6.47;;;;;;;10.91;100.00;92952.63;5109981;28;20051;-71
2022/12/09 09:21:53;;;;;;;21.52;6.75;;;;;;;10.98;100.00;92948.19;5109834;28;20051;-71
2022/12/09 09:24:21;;;;;;;28.58;7.18;;;;;;;11.10;100.00;92945.66;5109814;28;20092;-72
2022/12/09 09:26:50;;;;;;;25.02;7.53;;;;;;;11.11;100.00;92941.31;5109962;28;20516;-72
2022/12/09 09:29:19;;;;;;;24.98;7.63;;;;;;;11.30;100.00;92947.94;5110477;28;20564;-72
2022/12/09 09:31:47;;;;;;;18.65;6.38;;;;;;;11.34;100.00;92943.16;5113617;28;20079;-72
2022/12/09 09:34:16;;;;;;;28.98;6.82;;;;;;;11.40;100.00;92936.34;5113287;28;20138;-72
2022/12/09 09:36:43;;;;;;;22.33;6.57;;;;;;;11.33;100.00;92931.28;5113773;28;20457;-72
2022/12/09 09:39:10;;;;;;;17.90;6.25;;;;;;;11.39;100.00;92927.81;5113231;28;20051;-72
2022/12/09 09:41:44;;;;;;;23.10;7.03;;;;;;;11.44;100.00;92925.38;5113308;28;20129;-72
2022/12/09 09:44:21;;;;;;;21.70;6.93;;;;;;;11.55;100.00;92915.31;5113446;28;20044;-72
2022/12/09 09:46:50;;;;;;;23.05;6.90;;;;;;;11.78;100.00;92927.44;5113181;28;20043;-72
2022/12/09 09:49:23;;;;;;;26.23;6.63;;;;;;;11.83;100.00;92924.97;5113375;28;20040;-72
2022/12/09 09:51:49;;;;;;;19.50;6.28;;;;;;;11.84;100.00;92923.97;5113430;28;20039;-72
2022/12/09 09:54:16;;;;;;;11.40;5.60;;;;;;;11.83;100.00;92912.09;5113250;28;20094;-72
2022/12/09 09:56:50;;;;;;;15.63;6.80;;;;;;;11.81;100.00;92908.19;5113004;28;20040;-72
2022/12/09 09:59:28;;;;;;;17.80;5.53;;;;;;;11.74;100.00;92908.28;5113249;28;20054;-72
2022/12/09 10:02:06;;;;;;;22.02;6.13;;;;;;;11.73;100.00;92899.81;5112758;28;20093;-72
2022/12/09 10:04:47;;;;;;;21.23;5.68;;;;;;;11.73;100.00;92893.88;5113096;28;20160;-72
2022/12/09 10:07:21;;;;;;;12.18;4.97;;;;;;;11.72;100.00;92892.31;5113136;28;20452;-72
2022/12/09 10:09:56;;;;;;;13.77;5.72;;;;;;;11.73;100.00;92881.78;5113091;28;20128;-72
2022/12/09 10:12:27;;;;;;;17.52;5.60;;;;;;;11.72;100.00;92887.16;5112716;28;20564;-72
2022/12/09 10:14:58;;;;;;;24.25;5.65;;;;;;;11.72;100.00;92882.00;5112885;28;20048;-72
2022/12/09 10:17:28;;;;;;;15.88;5.78;;;;;;;11.64;100.00;92859.97;5112888;28;20073;-72
2022/12/09 10:20:04;;;;;;;15.90;5.53;;;;;;;11.66;100.00;92852.03;5112802;28;20086;-72
2022/12/09 10:22:44;;;;;;;16.77;5.93;;;;;;;11.85;100.00;92879.19;5112860;28;20043;-72
2022/12/09 10:25:18;;;;;;;22.30;6.03;;;;;;;11.93;100.00;92872.91;5112694;28;20303;-72
2022/12/09 10:27:50;;;;;;;17.63;6.18;;;;;;;11.94;100.00;92863.41;5112515;28;20055;-72
2022/12/09 10:30:18;;;;;;;17.13;6.10;;;;;;;12.04;100.00;92866.22;5112522;28;20043;-72
2022/12/09 10:32:44;;;;;;;16.98;5.22;;;;;;;12.04;100.00;92871.38;5112639;28;20055;-72
2022/12/09 10:35:16;;;;;;;14.85;5.85;;;;;;;12.09;100.00;92875.84;5112618;28;20059;-72
2022/12/09 10:37:43;;;;;;;17.77;5.63;;;;;;;12.21;100.00;92861.16;5112483;28;20043;-72
2022/12/09 10:40:20;;;;;;;10.90;4.97;;;;;;;12.32;100.00;92854.41;5111535;28;20087;-72
2022/12/09 10:45:33;;;;;;;18.48;5.50;;;;;;;12.43;100.00;92853.59;5111502;28;20144;-72
2022/12/09 10:48:00;;;;;;;13.20;4.97;;;;;;;12.38;100.00;92853.50;5111870;28;20665;-72
2022/12/09 10:50:31;;;;;;;22.80;5.60;;;;;;;12.41;100.00;92849.69;5112324;28;20140;-72
2022/12/09 10:53:04;;;;;;;15.77;5.05;;;;;;;12.42;100.00;92859.72;5112093;28;20560;-72
2022/12/09 10:55:38;;;;;;;18.42;5.47;;;;;;;12.40;100.00;92858.41;5112243;28;20128;-72
2022/12/09 10:58:16;;;;;;;10.73;4.80;;;;;;;12.47;100.00;92855.69;5111751;28;20097;-72
2022/12/09 11:00:43;;;;;;;15.32;5.35;;;;;;;12.56;100.00;92846.59;5111945;28;20055;-72
2022/12/09 11:03:25;;;;;;;11.00;4.68;;;;;;;12.37;100.00;92827.97;5111979;28;20044;-72
2022/12/09 11:05:59;;;;;;;12.77;5.13;;;;;;;12.54;100.00;92843.44;5111958;28;20132;-72
2022/12/09 11:08:26;;;;;;;10.23;4.18;;;;;;;12.58;100.00;92838.63;5111289;28;20047;-72
2022/12/09 11:10:53;;;;;;;16.67;5.63;;;;;;;12.63;100.00;92834.34;5111541;28;20631;-72
2022/12/09 11:13:26;;;;;;;13.52;4.43;;;;;;;12.51;100.00;92842.13;5111938;28;20048;-72
2022/12/09 11:15:58;;;;;;;10.68;5.28;;;;;;;12.61;100.00;92833.00;5111561;28;20048;-72
2022/12/09 11:18:27;;;;;;;13.15;4.97;;;;;;;12.77;100.00;92844.38;5111821;28;20419;-72
2022/12/09 11:20:57;;;;;;;14.77;5.70;;;;;;;12.91;100.00;92842.28;5111643;28;20052;-72
2022/12/09 11:23:24;;;;;;;12.15;5.30;;;;;;;12.98;100.00;92836.97;5107926;27;20122;-72
2022/12/09 11:25:54;;;;;;;13.77;5.63;;;;;;;13.05;100.00;92828.06;5109815;28;20067;-72
2022/12/09 11:28:25;;;;;;;13.75;5.30;;;;;;;13.03;100.00;92824.94;5106838;28;20068;-72
2022/12/09 11:30:55;;;;;;;12.70;4.82;;;;;;;13.03;100.00;92821.56;5111221;28;20051;-72
2022/12/09 11:33:26;;;;;;;16.17;5.97;;;;;;;13.06;100.00;92821.13;5110846;28;20135;-72